createdAt,value
2023-04-29T00:01:00.676Z,32.60
2023-04-29T00:06:02.971Z,32.90
2023-04-29T00:11:05.429Z,35.90
2023-04-29T00:16:08.811Z,32.70
2023-04-29T00:21:11.516Z,35.40
2023-04-29T00:26:13.360Z,35.20
2023-04-29T00:31:17.528Z,31.70
2023-04-29T00:36:19.617Z,30.00
2023-04-29T00:41:22.228Z,28.40
2023-04-29T00:46:24.308Z,25.80
2023-04-29T00:51:27.212Z,28.80
2023-04-29T00:56:32.366Z,27.40
2023-04-29T01:01:35.957Z,22.00
2023-04-29T01:06:53.189Z,22.30
2023-04-29T01:12:08.510Z,25.90
2023-04-29T01:17:15.718Z,24.10
2023-04-29T01:22:18.950Z,22.20
2023-04-29T01:27:32.177Z,22.50
2023-04-29T01:33:01.508Z,23.00
2023-04-29T01:38:29.684Z,19.90
2023-04-29T01:43:34.541Z,22.00
2023-04-29T01:48:54.819Z,18.00
2023-04-29T01:53:57.427Z,21.80
2023-04-29T01:58:59.746Z,18.60
2023-04-29T02:04:20.673Z,20.40
2023-04-29T02:09:22.708Z,18.20
2023-04-29T02:14:29.298Z,13.00
2023-04-29T02:19:31.784Z,14.90
2023-04-29T02:24:34.385Z,10.20
2023-04-29T02:29:37.196Z,13.80
2023-04-29T02:34:40.083Z,12.40
2023-04-29T02:39:42.062Z,12.20
2023-04-29T02:44:44.570Z,14.10
2023-04-29T02:49:47.170Z,10.20
2023-04-29T02:54:49.463Z,12.20
2023-04-29T02:59:51.614Z,11.50
2023-04-29T03:04:53.947Z,11.60
2023-04-29T03:09:56.387Z,13.50
2023-04-29T03:14:58.832Z,11.20
2023-04-29T03:20:00.852Z,11.60
2023-04-29T03:25:02.921Z,10.80
2023-04-29T03:30:10.445Z,10.20
2023-04-29T03:35:18.063Z,12.90
2023-04-29T03:40:37.569Z,11.70
2023-04-29T03:45:39.817Z,12.50
2023-04-29T03:50:42.344Z,11.70
2023-04-29T03:55:44.970Z,14.40
2023-04-29T04:00:46.893Z,11.10
2023-04-29T04:05:52.721Z,14.70
2023-04-29T04:10:54.591Z,12.50
2023-04-29T04:16:06.558Z,12.40
2023-04-29T04:21:09.987Z,13.60
2023-04-29T04:26:13.128Z,12.30
2023-04-29T04:31:32.443Z,9.80
2023-04-29T04:36:34.676Z,14.10
2023-04-29T04:41:36.655Z,13.30
2023-04-29T04:46:39.209Z,10.00
2023-04-29T04:51:47.486Z,10.40
2023-04-29T04:56:52.302Z,11.70
2023-04-29T05:01:55.527Z,11.30
2023-04-29T05:06:58.714Z,11.30
2023-04-29T05:12:02.988Z,11.50
2023-04-29T05:17:10.411Z,12.50
2023-04-29T05:22:12.855Z,10.70
2023-04-29T05:27:16.609Z,10.90
2023-04-29T05:32:18.801Z,11.70
2023-04-29T05:37:21.005Z,12.00
2023-04-29T05:42:45.700Z,12.30
2023-04-29T05:47:48.497Z,12.20
2023-04-29T05:52:52.044Z,14.60
2023-04-29T05:57:54.754Z,13.00
2023-04-29T06:02:59.189Z,11.20
2023-04-29T06:08:03.997Z,16.20
2023-04-29T06:13:20.637Z,14.50
2023-04-29T06:18:24.365Z,13.80
2023-04-29T06:23:26.755Z,12.50
2023-04-29T06:28:30.133Z,12.10
2023-04-29T06:33:34.120Z,12.40
2023-04-29T06:38:36.644Z,13.40
2023-04-29T06:44:01.990Z,13.40
2023-04-29T06:49:30.349Z,13.50
2023-04-29T06:54:32.394Z,16.30
2023-04-29T06:59:34.867Z,13.60
2023-04-29T07:04:39.396Z,13.30
2023-04-29T07:09:41.681Z,15.70
2023-04-29T07:14:43.588Z,18.00
2023-04-29T07:19:47.369Z,13.50
2023-04-29T07:24:49.379Z,10.90
2023-04-29T07:29:51.692Z,12.70
2023-04-29T07:34:53.967Z,11.20
2023-04-29T07:39:56.555Z,15.80
2023-04-29T07:44:59.120Z,16.40
2023-04-29T07:50:01.660Z,12.30
2023-04-29T07:55:03.960Z,12.20
2023-04-29T08:00:07.672Z,12.30
2023-04-29T08:05:16.815Z,14.80
2023-04-29T08:10:22.889Z,15.10
2023-04-29T08:15:25.016Z,11.30
2023-04-29T08:20:29.077Z,11.00
2023-04-29T08:25:31.013Z,9.60
2023-04-29T08:30:33.676Z,10.20
2023-04-29T08:35:38.821Z,11.80
2023-04-29T08:40:43.780Z,11.70
2023-04-29T08:45:48.843Z,13.20
2023-04-29T08:50:50.957Z,10.60
2023-04-29T08:55:55.475Z,11.10
2023-04-29T09:00:57.644Z,12.20
2023-04-29T09:06:02.109Z,10.10
2023-04-29T09:11:05.496Z,9.70
2023-04-29T09:16:12.045Z,10.50
2023-04-29T09:21:21.141Z,11.30
2023-04-29T09:26:25.124Z,9.60
2023-04-29T09:31:28.208Z,11.10
2023-04-29T09:36:38.584Z,11.60
2023-04-29T09:41:43.696Z,9.50
2023-04-29T09:46:57.504Z,10.70
2023-04-29T09:52:05.249Z,11.10
2023-04-29T09:57:09.237Z,10.40
